sensor_id;sensor_type;location;lat;lon;timestamp;P1;durP1;ratioP1;P2;durP2;ratioP2
39694;SDS011;25367;-35.352;149.036;2024-03-23T00:54:34;3.83;;;0.93;;
39694;SDS011;25367;-35.352;149.036;2024-03-23T00:57:04;7.07;;;1.20;;
39694;SDS011;25367;-35.352;149.036;2024-03-23T00:59:33;4.70;;;1.13;;
39694;SDS011;25367;-35.352;149.036;2024-03-23T01:02:03;6.55;;;1.20;;
39694;SDS011;25367;-35.352;149.036;2024-03-23T01:04:32;6.60;;;1.02;;
39694;SDS011;25367;-35.352;149.036;2024-03-23T01:07:01;9.05;;;1.25;;
39694;SDS011;25367;-35.352;149.036;2024-03-23T01:09:31;4.60;;;0.90;;
39694;SDS011;25367;-35.352;149.036;2024-03-23T01:12:03;3.80;;;1.27;;
39694;SDS011;25367;-35.352;149.036;2024-03-23T01:14:33;5.95;;;1.00;;
39694;SDS011;25367;-35.352;149.036;2024-03-23T01:17:02;4.65;;;1.15;;
39694;SDS011;25367;-35.352;149.036;2024-03-23T01:19:32;3.38;;;1.10;;
39694;SDS011;25367;-35.352;149.036;2024-03-23T01:22:01;3.75;;;1.30;;
39694;SDS011;25367;-35.352;149.036;2024-03-23T01:24:31;4.40;;;1.23;;
39694;SDS011;25367;-35.352;149.036;2024-03-23T01:27:02;3.30;;;0.95;;
39694;SDS011;25367;-35.352;149.036;2024-03-23T01:29:32;3.40;;;0.98;;
39694;SDS011;25367;-35.352;149.036;2024-03-23T01:32:01;3.20;;;0.80;;
39694;SDS011;25367;-35.352;149.036;2024-03-23T01:34:31;3.38;;;0.95;;
39694;SDS011;25367;-35.352;149.036;2024-03-23T01:37:00;3.45;;;1.45;;
39694;SDS011;25367;-35.352;149.036;2024-03-23T01:39:30;5.55;;;1.17;;
39694;SDS011;25367;-35.352;149.036;2024-03-23T01:42:01;4.82;;;1.35;;
39694;SDS011;25367;-35.352;149.036;2024-03-23T01:44:31;11.77;;;1.55;;
39694;SDS011;25367;-35.352;149.036;2024-03-23T01:47:01;5.95;;;1.13;;
39694;SDS011;25367;-35.352;149.036;2024-03-23T01:49:30;3.72;;;1.05;;
39694;SDS011;25367;-35.352;149.036;2024-03-23T01:52:00;8.65;;;1.42;;
39694;SDS011;25367;-35.352;149.036;2024-03-23T01:54:31;4.80;;;1.95;;
39694;SDS011;25367;-35.352;149.036;2024-03-23T01:57:03;7.35;;;1.55;;
39694;SDS011;25367;-35.352;149.036;2024-03-23T01:59:32;3.70;;;1.10;;
39694;SDS011;25367;-35.352;149.036;2024-03-23T02:02:02;4.32;;;1.52;;
39694;SDS011;25367;-35.352;149.036;2024-03-23T02:04:32;5.10;;;1.30;;
39694;SDS011;25367;-35.352;149.036;2024-03-23T02:07:01;5.15;;;1.42;;
39694;SDS011;25367;-35.352;149.036;2024-03-23T02:09:31;5.65;;;1.48;;
39694;SDS011;25367;-35.352;149.036;2024-03-23T02:12:04;3.53;;;1.15;;
39694;SDS011;25367;-35.352;149.036;2024-03-23T02:14:34;3.95;;;1.17;;
39694;SDS011;25367;-35.352;149.036;2024-03-23T02:17:04;5.28;;;1.50;;
39694;SDS011;25367;-35.352;149.036;2024-03-23T02:19:33;2.10;;;1.20;;
39694;SDS011;25367;-35.352;149.036;2024-03-23T02:22:03;1.48;;;0.88;;
39694;SDS011;25367;-35.352;149.036;2024-03-23T02:24:34;4.60;;;1.30;;
39694;SDS011;25367;-35.352;149.036;2024-03-23T02:27:04;4.78;;;1.38;;
39694;SDS011;25367;-35.352;149.036;2024-03-23T02:29:33;4.13;;;1.40;;
39694;SDS011;25367;-35.352;149.036;2024-03-23T02:32:03;4.70;;;1.00;;
39694;SDS011;25367;-35.352;149.036;2024-03-23T02:34:33;4.93;;;1.10;;
39694;SDS011;25367;-35.352;149.036;2024-03-23T02:37:03;4.65;;;1.10;;
39694;SDS011;25367;-35.352;149.036;2024-03-23T02:39:41;7.22;;;1.10;;
39694;SDS011;25367;-35.352;149.036;2024-03-23T02:42:10;2.58;;;0.90;;
39694;SDS011;25367;-35.352;149.036;2024-03-23T02:44:40;5.00;;;1.02;;
39694;SDS011;25367;-35.352;149.036;2024-03-23T02:47:09;6.18;;;1.20;;
39694;SDS011;25367;-35.352;149.036;2024-03-23T02:49:38;7.38;;;1.40;;
39694;SDS011;25367;-35.352;149.036;2024-03-23T02:52:08;4.45;;;1.50;;
39694;SDS011;25367;-35.352;149.036;2024-03-23T02:54:37;5.05;;;1.33;;
39694;SDS011;25367;-35.352;149.036;2024-03-23T02:57:10;9.15;;;1.05;;
39694;SDS011;25367;-35.352;149.036;2024-03-23T02:59:40;5.57;;;1.25;;
39694;SDS011;25367;-35.352;149.036;2024-03-23T03:02:09;3.67;;;1.13;;
39694;SDS011;25367;-35.352;149.036;2024-03-23T03:04:39;4.10;;;1.10;;
39694;SDS011;25367;-35.352;149.036;2024-03-23T03:07:09;7.30;;;1.35;;
39694;SDS011;25367;-35.352;149.036;2024-03-23T03:09:38;3.97;;;0.95;;
39694;SDS011;25367;-35.352;149.036;2024-03-23T03:12:09;10.65;;;1.75;;
39694;SDS011;25367;-35.352;149.036;2024-03-23T03:14:39;8.98;;;1.42;;
39694;SDS011;25367;-35.352;149.036;2024-03-23T03:17:08;3.10;;;1.17;;
39694;SDS011;25367;-35.352;149.036;2024-03-23T03:19:38;5.00;;;1.20;;
39694;SDS011;25367;-35.352;149.036;2024-03-23T03:22:07;6.28;;;1.40;;
39694;SDS011;25367;-35.352;149.036;2024-03-23T03:24:37;8.13;;;1.52;;
39694;SDS011;25367;-35.352;149.036;2024-03-23T03:27:08;6.55;;;1.10;;
39694;SDS011;25367;-35.352;149.036;2024-03-23T03:29:37;3.30;;;0.93;;
39694;SDS011;25367;-35.352;149.036;2024-03-23T03:32:07;7.28;;;1.40;;
39694;SDS011;25367;-35.352;149.036;2024-03-23T03:34:36;6.82;;;1.08;;
39694;SDS011;25367;-35.352;149.036;2024-03-23T03:37:06;4.60;;;1.48;;
39694;SDS011;25367;-35.352;149.036;2024-03-23T03:39:35;5.07;;;1.15;;
39694;SDS011;25367;-35.352;149.036;2024-03-23T03:42:05;4.43;;;1.20;;
39694;SDS011;25367;-35.352;149.036;2024-03-23T03:44:36;7.25;;;1.13;;
39694;SDS011;25367;-35.352;149.036;2024-03-23T03:47:06;3.20;;;1.17;;
39694;SDS011;25367;-35.352;149.036;2024-03-23T03:49:35;9.65;;;1.38;;
39694;SDS011;25367;-35.352;149.036;2024-03-23T03:52:05;2.38;;;0.88;;
39694;SDS011;25367;-35.352;149.036;2024-03-23T03:54:34;13.45;;;1.80;;
39694;SDS011;25367;-35.352;149.036;2024-03-23T03:57:04;13.93;;;1.08;;
39694;SDS011;25367;-35.352;149.036;2024-03-23T03:59:35;4.32;;;1.15;;
39694;SDS011;25367;-35.352;149.036;2024-03-23T04:02:05;3.80;;;0.85;;
39694;SDS011;25367;-35.352;149.036;2024-03-23T04:04:34;1.10;;;0.60;;
39694;SDS011;25367;-35.352;149.036;2024-03-23T04:07:04;2.78;;;0.57;;
39694;SDS011;25367;-35.352;149.036;2024-03-23T04:09:33;2.30;;;0.47;;
39694;SDS011;25367;-35.352;149.036;2024-03-23T04:12:02;1.90;;;0.63;;
39694;SDS011;25367;-35.352;149.036;2024-03-23T04:14:32;3.83;;;1.00;;
39694;SDS011;25367;-35.352;149.036;2024-03-23T04:17:04;1.95;;;0.60;;
39694;SDS011;25367;-35.352;149.036;2024-03-23T04:19:33;4.05;;;1.23;;
39694;SDS011;25367;-35.352;149.036;2024-03-23T04:22:03;4.75;;;0.75;;
39694;SDS011;25367;-35.352;149.036;2024-03-23T04:24:32;3.55;;;0.95;;
39694;SDS011;25367;-35.352;149.036;2024-03-23T04:27:02;6.50;;;1.27;;
39694;SDS011;25367;-35.352;149.036;2024-03-23T04:29:31;5.68;;;1.00;;
39694;SDS011;25367;-35.352;149.036;2024-03-23T04:32:03;7.25;;;1.63;;
39694;SDS011;25367;-35.352;149.036;2024-03-23T04:34:33;8.93;;;1.30;;
39694;SDS011;25367;-35.352;149.036;2024-03-23T04:37:02;2.75;;;0.90;;
39694;SDS011;25367;-35.352;149.036;2024-03-23T04:39:32;3.67;;;1.05;;
39694;SDS011;25367;-35.352;149.036;2024-03-23T04:42:01;17.23;;;2.13;;
39694;SDS011;25367;-35.352;149.036;2024-03-23T04:44:31;12.57;;;1.83;;
39694;SDS011;25367;-35.352;149.036;2024-03-23T04:47:02;15.80;;;2.20;;
39694;SDS011;25367;-35.352;149.036;2024-03-23T04:49:32;10.10;;;2.47;;
39694;SDS011;25367;-35.352;149.036;2024-03-23T04:52:01;18.58;;;2.22;;
39694;SDS011;25367;-35.352;149.036;2024-03-23T04:54:31;15.07;;;1.85;;
39694;SDS011;25367;-35.352;149.036;2024-03-23T04:57:01;19.75;;;2.22;;
39694;SDS011;25367;-35.352;149.036;2024-03-23T04:59:30;9.32;;;1.80;;
39694;SDS011;25367;-35.352;149.036;2024-03-23T05:01:59;15.10;;;1.80;;
39694;SDS011;25367;-35.352;149.036;2024-03-23T05:04:31;6.85;;;1.73;;
39694;SDS011;25367;-35.352;149.036;2024-03-23T05:07:00;9.65;;;1.65;;
39694;SDS011;25367;-35.352;149.036;2024-03-23T05:09:30;12.93;;;1.63;;
39694;SDS011;25367;-35.352;149.036;2024-03-23T05:12:00;11.32;;;2.17;;
39694;SDS011;25367;-35.352;149.036;2024-03-23T05:14:29;8.90;;;2.05;;
39694;SDS011;25367;-35.352;149.036;2024-03-23T05:16:58;9.15;;;1.65;;
39694;SDS011;25367;-35.352;149.036;2024-03-23T05:19:30;4.13;;;1.35;;
39694;SDS011;25367;-35.352;149.036;2024-03-23T05:21:59;5.55;;;1.70;;
39694;SDS011;25367;-35.352;149.036;2024-03-23T05:24:29;9.43;;;1.10;;
39694;SDS011;25367;-35.352;149.036;2024-03-23T05:26:58;9.25;;;1.85;;
39694;SDS011;25367;-35.352;149.036;2024-03-23T05:29:27;8.82;;;1.70;;
39694;SDS011;25367;-35.352;149.036;2024-03-23T05:31:57;5.40;;;1.63;;
39694;SDS011;25367;-35.352;149.036;2024-03-23T05:34:26;6.47;;;1.92;;
39694;SDS011;25367;-35.352;149.036;2024-03-23T05:36:58;7.47;;;1.13;;
39694;SDS011;25367;-35.352;149.036;2024-03-23T05:39:28;9.90;;;1.83;;
39694;SDS011;25367;-35.352;149.036;2024-03-23T05:41:58;6.13;;;1.30;;
39694;SDS011;25367;-35.352;149.036;2024-03-23T05:44:28;5.07;;;1.40;;
39694;SDS011;25367;-35.352;149.036;2024-03-23T05:46:57;7.45;;;1.45;;
39694;SDS011;25367;-35.352;149.036;2024-03-23T05:49:26;7.13;;;1.40;;
39694;SDS011;25367;-35.352;149.036;2024-03-23T05:51:58;8.93;;;1.75;;
39694;SDS011;25367;-35.352;149.036;2024-03-23T05:54:27;5.93;;;1.27;;
39694;SDS011;25367;-35.352;149.036;2024-03-23T05:56:57;8.35;;;1.95;;
39694;SDS011;25367;-35.352;149.036;2024-03-23T05:59:26;5.35;;;1.52;;
39694;SDS011;25367;-35.352;149.036;2024-03-23T06:01:56;4.20;;;1.52;;
39694;SDS011;25367;-35.352;149.036;2024-03-23T06:04:25;6.68;;;1.85;;
39694;SDS011;25367;-35.352;149.036;2024-03-23T06:06:57;3.90;;;1.30;;
39694;SDS011;25367;-35.352;149.036;2024-03-23T06:09:26;8.30;;;1.52;;
39694;SDS011;25367;-35.352;149.036;2024-03-23T06:11:56;7.53;;;1.60;;
39694;SDS011;25367;-35.352;149.036;2024-03-23T06:14:25;5.07;;;1.50;;
39694;SDS011;25367;-35.352;149.036;2024-03-23T06:16:55;7.53;;;1.80;;
39694;SDS011;25367;-35.352;149.036;2024-03-23T06:19:24;8.55;;;1.60;;
39694;SDS011;25367;-35.352;149.036;2024-03-23T06:21:54;8.07;;;1.88;;
39694;SDS011;25367;-35.352;149.036;2024-03-23T06:24:25;4.97;;;1.80;;
39694;SDS011;25367;-35.352;149.036;2024-03-23T06:26:55;6.22;;;2.25;;
39694;SDS011;25367;-35.352;149.036;2024-03-23T06:29:24;7.20;;;2.03;;
39694;SDS011;25367;-35.352;149.036;2024-03-23T06:31:54;11.15;;;2.55;;
39694;SDS011;25367;-35.352;149.036;2024-03-23T06:34:23;9.00;;;2.67;;
39694;SDS011;25367;-35.352;149.036;2024-03-23T06:36:52;10.48;;;2.20;;
39694;SDS011;25367;-35.352;149.036;2024-03-23T06:39:25;8.13;;;2.40;;
39694;SDS011;25367;-35.352;149.036;2024-03-23T06:41:55;9.68;;;2.17;;
39694;SDS011;25367;-35.352;149.036;2024-03-23T06:44:24;5.95;;;2.63;;
39694;SDS011;25367;-35.352;149.036;2024-03-23T06:46:54;7.53;;;2.17;;
39694;SDS011;25367;-35.352;149.036;2024-03-23T06:49:23;5.45;;;2.22;;
39694;SDS011;25367;-35.352;149.036;2024-03-23T06:51:53;6.18;;;2.03;;
39694;SDS011;25367;-35.352;149.036;2024-03-23T06:54:24;8.25;;;1.85;;
39694;SDS011;25367;-35.352;149.036;2024-03-23T06:56:54;8.30;;;2.88;;
39694;SDS011;25367;-35.352;149.036;2024-03-23T06:59:23;7.97;;;2.17;;
39694;SDS011;25367;-35.352;149.036;2024-03-23T07:01:53;4.50;;;2.10;;
39694;SDS011;25367;-35.352;149.036;2024-03-23T07:04:22;15.82;;;2.60;;
39694;SDS011;25367;-35.352;149.036;2024-03-23T07:06:53;5.63;;;2.15;;
39694;SDS011;25367;-35.352;149.036;2024-03-23T07:09:25;12.02;;;2.72;;
39694;SDS011;25367;-35.352;149.036;2024-03-23T07:14:24;9.27;;;3.20;;
39694;SDS011;25367;-35.352;149.036;2024-03-23T07:16:54;4.50;;;2.33;;
39694;SDS011;25367;-35.352;149.036;2024-03-23T07:19:23;5.57;;;2.85;;
39694;SDS011;25367;-35.352;149.036;2024-03-23T07:21:52;5.88;;;2.70;;
39694;SDS011;25367;-35.352;149.036;2024-03-23T07:24:22;7.82;;;2.40;;
39694;SDS011;25367;-35.352;149.036;2024-03-23T07:26:54;6.55;;;2.40;;
39694;SDS011;25367;-35.352;149.036;2024-03-23T07:29:23;5.13;;;2.40;;
39694;SDS011;25367;-35.352;149.036;2024-03-23T07:31:52;3.80;;;1.90;;
39694;SDS011;25367;-35.352;149.036;2024-03-23T07:34:22;5.78;;;2.20;;
39694;SDS011;25367;-35.352;149.036;2024-03-23T07:36:52;5.82;;;2.25;;
39694;SDS011;25367;-35.352;149.036;2024-03-23T07:39:22;4.30;;;2.05;;
39694;SDS011;25367;-35.352;149.036;2024-03-23T07:41:53;7.60;;;2.10;;
39694;SDS011;25367;-35.352;149.036;2024-03-23T07:44:22;5.97;;;2.33;;
39694;SDS011;25367;-35.352;149.036;2024-03-23T07:46:52;9.68;;;2.05;;
39694;SDS011;25367;-35.352;149.036;2024-03-23T07:49:21;5.80;;;2.50;;
39694;SDS011;25367;-35.352;149.036;2024-03-23T07:51:54;4.85;;;2.25;;
39694;SDS011;25367;-35.352;149.036;2024-03-23T07:54:25;7.18;;;2.15;;
39694;SDS011;25367;-35.352;149.036;2024-03-23T07:56:55;4.72;;;2.00;;
39694;SDS011;25367;-35.352;149.036;2024-03-23T07:59:24;7.20;;;2.33;;
39694;SDS011;25367;-35.352;149.036;2024-03-23T08:01:54;3.95;;;2.03;;
39694;SDS011;25367;-35.352;149.036;2024-03-23T08:04:23;4.28;;;2.50;;
39694;SDS011;25367;-35.352;149.036;2024-03-23T08:06:53;11.38;;;2.83;;
39694;SDS011;25367;-35.352;149.036;2024-03-23T08:09:22;13.38;;;2.97;;
39694;SDS011;25367;-35.352;149.036;2024-03-23T08:11:54;6.00;;;2.35;;
39694;SDS011;25367;-35.352;149.036;2024-03-23T08:14:23;7.97;;;2.20;;
39694;SDS011;25367;-35.352;149.036;2024-03-23T08:16:54;9.85;;;2.65;;
39694;SDS011;25367;-35.352;149.036;2024-03-23T08:19:24;8.20;;;2.50;;
39694;SDS011;25367;-35.352;149.036;2024-03-23T08:21:53;17.63;;;2.67;;
39694;SDS011;25367;-35.352;149.036;2024-03-23T08:24:23;6.50;;;2.42;;
39694;SDS011;25367;-35.352;149.036;2024-03-23T08:26:54;12.23;;;3.50;;
39694;SDS011;25367;-35.352;149.036;2024-03-23T08:29:24;7.57;;;2.92;;
39694;SDS011;25367;-35.352;149.036;2024-03-23T08:31:54;11.88;;;2.45;;
39694;SDS011;25367;-35.352;149.036;2024-03-23T08:34:23;15.30;;;2.40;;
39694;SDS011;25367;-35.352;149.036;2024-03-23T08:36:52;8.63;;;2.20;;
39694;SDS011;25367;-35.352;149.036;2024-03-23T08:39:22;9.48;;;2.80;;
39694;SDS011;25367;-35.352;149.036;2024-03-23T08:41:53;7.20;;;2.30;;
39694;SDS011;25367;-35.352;149.036;2024-03-23T08:44:22;7.45;;;2.03;;
39694;SDS011;25367;-35.352;149.036;2024-03-23T08:46:52;5.88;;;2.47;;
39694;SDS011;25367;-35.352;149.036;2024-03-23T08:49:25;8.23;;;2.72;;
39694;SDS011;25367;-35.352;149.036;2024-03-23T08:51:54;8.95;;;2.50;;
39694;SDS011;25367;-35.352;149.036;2024-03-23T08:54:23;7.25;;;2.60;;
39694;SDS011;25367;-35.352;149.036;2024-03-23T08:56:55;7.20;;;2.75;;
39694;SDS011;25367;-35.352;149.036;2024-03-23T08:59:25;4.55;;;2.50;;
39694;SDS011;25367;-35.352;149.036;2024-03-23T09:01:54;6.70;;;2.88;;
39694;SDS011;25367;-35.352;149.036;2024-03-23T09:04:23;8.73;;;2.95;;
39694;SDS011;25367;-35.352;149.036;2024-03-23T09:06:53;12.63;;;2.85;;
39694;SDS011;25367;-35.352;149.036;2024-03-23T09:09:22;11.20;;;3.03;;
39694;SDS011;25367;-35.352;149.036;2024-03-23T23:33:50;14.77;;;3.47;;
39694;SDS011;25367;-35.352;149.036;2024-03-23T23:36:20;6.85;;;2.17;;
39694;SDS011;25367;-35.352;149.036;2024-03-23T23:38:50;5.70;;;1.90;;
